sensor_id;sensor_type;location;lat;lon;timestamp;P1;durP1;ratioP1;P2;durP2;ratioP2
75356;SDS011;63946;51.986;5.930;2023-09-18T00:00:48;12.35;;;11.15;;
75356;SDS011;63946;51.986;5.930;2023-09-18T00:03:18;9.70;;;8.80;;
75356;SDS011;63946;51.986;5.930;2023-09-18T00:05:53;11.55;;;10.35;;
75356;SDS011;63946;51.986;5.930;2023-09-18T00:08:27;10.48;;;9.13;;
75356;SDS011;63946;51.986;5.930;2023-09-18T00:11:00;11.10;;;10.10;;
75356;SDS011;63946;51.986;5.930;2023-09-18T00:13:33;13.38;;;11.98;;
75356;SDS011;63946;51.986;5.930;2023-09-18T00:16:02;12.40;;;10.32;;
75356;SDS011;63946;51.986;5.930;2023-09-18T00:18:31;12.00;;;10.80;;
75356;SDS011;63946;51.986;5.930;2023-09-18T00:21:10;10.98;;;9.98;;
75356;SDS011;63946;51.986;5.930;2023-09-18T00:23:43;12.52;;;11.23;;
75356;SDS011;63946;51.986;5.930;2023-09-18T00:26:16;13.30;;;11.93;;
75356;SDS011;63946;51.986;5.930;2023-09-18T00:28:50;11.77;;;10.38;;
75356;SDS011;63946;51.986;5.930;2023-09-18T00:31:25;14.82;;;12.13;;
75356;SDS011;63946;51.986;5.930;2023-09-18T00:33:55;11.35;;;10.15;;
75356;SDS011;63946;51.986;5.930;2023-09-18T00:36:37;12.30;;;9.75;;
75356;SDS011;63946;51.986;5.930;2023-09-18T00:39:11;10.15;;;9.15;;
75356;SDS011;63946;51.986;5.930;2023-09-18T00:41:41;12.60;;;10.70;;
75356;SDS011;63946;51.986;5.930;2023-09-18T00:44:15;12.68;;;10.27;;
75356;SDS011;63946;51.986;5.930;2023-09-18T00:46:46;11.63;;;10.43;;
75356;SDS011;63946;51.986;5.930;2023-09-18T00:49:17;11.00;;;9.85;;
75356;SDS011;63946;51.986;5.930;2023-09-18T00:51:50;13.70;;;9.15;;
75356;SDS011;63946;51.986;5.930;2023-09-18T00:54:21;12.20;;;10.68;;
75356;SDS011;63946;51.986;5.930;2023-09-18T00:56:54;11.68;;;9.95;;
75356;SDS011;63946;51.986;5.930;2023-09-18T00:59:28;12.02;;;10.27;;
75356;SDS011;63946;51.986;5.930;2023-09-18T01:02:02;13.07;;;9.90;;
75356;SDS011;63946;51.986;5.930;2023-09-18T01:04:32;12.13;;;10.10;;
75356;SDS011;63946;51.986;5.930;2023-09-18T01:07:10;12.73;;;9.60;;
75356;SDS011;63946;51.986;5.930;2023-09-18T01:09:39;11.73;;;9.80;;
75356;SDS011;63946;51.986;5.930;2023-09-18T01:12:28;11.13;;;9.40;;
75356;SDS011;63946;51.986;5.930;2023-09-18T01:15:20;10.65;;;9.63;;
75356;SDS011;63946;51.986;5.930;2023-09-18T01:18:07;12.40;;;9.57;;
75356;SDS011;63946;51.986;5.930;2023-09-18T01:20:48;11.50;;;9.73;;
75356;SDS011;63946;51.986;5.930;2023-09-18T01:23:21;12.35;;;11.00;;
75356;SDS011;63946;51.986;5.930;2023-09-18T01:25:59;11.70;;;10.20;;
75356;SDS011;63946;51.986;5.930;2023-09-18T01:28:37;12.77;;;10.95;;
75356;SDS011;63946;51.986;5.930;2023-09-18T01:31:11;10.95;;;9.82;;
75356;SDS011;63946;51.986;5.930;2023-09-18T01:33:44;13.45;;;10.60;;
75356;SDS011;63946;51.986;5.930;2023-09-18T01:36:17;15.30;;;11.98;;
75356;SDS011;63946;51.986;5.930;2023-09-18T01:41:38;11.68;;;10.48;;
75356;SDS011;63946;51.986;5.930;2023-09-18T01:44:17;13.13;;;11.20;;
75356;SDS011;63946;51.986;5.930;2023-09-18T01:46:47;14.95;;;11.32;;
75356;SDS011;63946;51.986;5.930;2023-09-18T01:49:26;12.00;;;10.75;;
75356;SDS011;63946;51.986;5.930;2023-09-18T01:52:02;12.75;;;10.75;;
75356;SDS011;63946;51.986;5.930;2023-09-18T01:54:38;14.48;;;10.57;;
75356;SDS011;63946;51.986;5.930;2023-09-18T01:57:24;12.80;;;9.73;;
75356;SDS011;63946;51.986;5.930;2023-09-18T01:59:53;13.65;;;10.60;;
75356;SDS011;63946;51.986;5.930;2023-09-18T02:02:26;11.73;;;10.52;;
75356;SDS011;63946;51.986;5.930;2023-09-18T02:04:56;11.23;;;10.10;;
75356;SDS011;63946;51.986;5.930;2023-09-18T02:07:29;11.95;;;10.75;;
75356;SDS011;63946;51.986;5.930;2023-09-18T02:10:17;12.15;;;10.82;;
75356;SDS011;63946;51.986;5.930;2023-09-18T02:13:05;10.90;;;8.88;;
75356;SDS011;63946;51.986;5.930;2023-09-18T02:15:42;12.52;;;11.23;;
75356;SDS011;63946;51.986;5.930;2023-09-18T02:18:18;10.07;;;9.07;;
75356;SDS011;63946;51.986;5.930;2023-09-18T02:20:52;12.50;;;11.20;;
75356;SDS011;63946;51.986;5.930;2023-09-18T02:23:28;12.05;;;10.27;;
75356;SDS011;63946;51.986;5.930;2023-09-18T02:26:00;11.65;;;9.73;;
75356;SDS011;63946;51.986;5.930;2023-09-18T02:28:31;12.20;;;10.95;;
75356;SDS011;63946;51.986;5.930;2023-09-18T02:31:03;12.88;;;10.75;;
75356;SDS011;63946;51.986;5.930;2023-09-18T02:33:34;11.90;;;10.00;;
75356;SDS011;63946;51.986;5.930;2023-09-18T02:36:11;11.90;;;10.38;;
75356;SDS011;63946;51.986;5.930;2023-09-18T02:38:43;13.50;;;11.45;;
75356;SDS011;63946;51.986;5.930;2023-09-18T02:41:21;11.85;;;9.98;;
75356;SDS011;63946;51.986;5.930;2023-09-18T02:43:54;14.18;;;10.63;;
75356;SDS011;63946;51.986;5.930;2023-09-18T02:46:28;13.75;;;10.18;;
75356;SDS011;63946;51.986;5.930;2023-09-18T02:49:03;14.73;;;10.15;;
75356;SDS011;63946;51.986;5.930;2023-09-18T02:51:37;14.40;;;10.88;;
75356;SDS011;63946;51.986;5.930;2023-09-18T02:54:11;13.57;;;10.68;;
75356;SDS011;63946;51.986;5.930;2023-09-18T02:56:46;13.18;;;9.77;;
75356;SDS011;63946;51.986;5.930;2023-09-18T02:59:21;12.63;;;10.10;;
75356;SDS011;63946;51.986;5.930;2023-09-18T03:01:59;10.85;;;9.30;;
75356;SDS011;63946;51.986;5.930;2023-09-18T03:04:32;14.63;;;11.27;;
75356;SDS011;63946;51.986;5.930;2023-09-18T03:07:13;13.30;;;10.80;;
75356;SDS011;63946;51.986;5.930;2023-09-18T03:09:49;10.73;;;8.90;;
75356;SDS011;63946;51.986;5.930;2023-09-18T03:12:24;11.32;;;10.05;;
75356;SDS011;63946;51.986;5.930;2023-09-18T03:15:12;12.02;;;10.73;;
75356;SDS011;63946;51.986;5.930;2023-09-18T03:18:06;11.85;;;9.88;;
75356;SDS011;63946;51.986;5.930;2023-09-18T03:20:42;9.68;;;8.63;;
75356;SDS011;63946;51.986;5.930;2023-09-18T03:23:20;10.88;;;9.77;;
75356;SDS011;63946;51.986;5.930;2023-09-18T03:26:00;11.95;;;9.77;;
75356;SDS011;63946;51.986;5.930;2023-09-18T03:28:37;10.65;;;9.55;;
75356;SDS011;63946;51.986;5.930;2023-09-18T03:31:11;14.00;;;10.43;;
75356;SDS011;63946;51.986;5.930;2023-09-18T03:34:05;9.13;;;7.43;;
75356;SDS011;63946;51.986;5.930;2023-09-18T03:36:41;11.65;;;9.38;;
75356;SDS011;63946;51.986;5.930;2023-09-18T03:41:58;8.88;;;7.80;;
75356;SDS011;63946;51.986;5.930;2023-09-18T03:44:39;13.10;;;8.25;;
75356;SDS011;63946;51.986;5.930;2023-09-18T03:47:19;9.00;;;8.13;;
75356;SDS011;63946;51.986;5.930;2023-09-18T03:49:51;8.73;;;7.82;;
75356;SDS011;63946;51.986;5.930;2023-09-18T03:52:20;10.95;;;8.82;;
75356;SDS011;63946;51.986;5.930;2023-09-18T03:54:55;14.30;;;8.98;;
75356;SDS011;63946;51.986;5.930;2023-09-18T03:57:33;9.65;;;7.63;;
75356;SDS011;63946;51.986;5.930;2023-09-18T04:00:16;9.10;;;8.20;;
75356;SDS011;63946;51.986;5.930;2023-09-18T04:03:00;12.23;;;9.05;;
75356;SDS011;63946;51.986;5.930;2023-09-18T04:05:33;11.27;;;8.60;;
75356;SDS011;63946;51.986;5.930;2023-09-18T04:08:02;12.18;;;8.95;;
75356;SDS011;63946;51.986;5.930;2023-09-18T04:10:40;10.52;;;8.52;;
75356;SDS011;63946;51.986;5.930;2023-09-18T04:13:13;12.05;;;8.93;;
75356;SDS011;63946;51.986;5.930;2023-09-18T04:15:53;10.80;;;9.13;;
75356;SDS011;63946;51.986;5.930;2023-09-18T04:18:32;12.65;;;9.30;;
75356;SDS011;63946;51.986;5.930;2023-09-18T04:23:51;12.50;;;8.65;;
75356;SDS011;63946;51.986;5.930;2023-09-18T04:26:26;11.85;;;8.80;;
75356;SDS011;63946;51.986;5.930;2023-09-18T04:28:57;12.65;;;9.60;;
75356;SDS011;63946;51.986;5.930;2023-09-18T04:31:27;13.02;;;8.50;;
75356;SDS011;63946;51.986;5.930;2023-09-18T04:34:00;12.10;;;8.68;;
75356;SDS011;63946;51.986;5.930;2023-09-18T04:36:33;9.77;;;8.25;;
75356;SDS011;63946;51.986;5.930;2023-09-18T04:39:08;11.18;;;8.05;;
75356;SDS011;63946;51.986;5.930;2023-09-18T04:41:40;11.48;;;7.85;;
75356;SDS011;63946;51.986;5.930;2023-09-18T04:44:14;13.43;;;8.60;;
75356;SDS011;63946;51.986;5.930;2023-09-18T04:46:50;10.52;;;9.52;;
75356;SDS011;63946;51.986;5.930;2023-09-18T04:49:22;9.52;;;7.82;;
75356;SDS011;63946;51.986;5.930;2023-09-18T04:52:03;9.65;;;8.35;;
75356;SDS011;63946;51.986;5.930;2023-09-18T04:54:39;10.02;;;8.57;;
75356;SDS011;63946;51.986;5.930;2023-09-18T04:57:14;9.70;;;8.23;;
75356;SDS011;63946;51.986;5.930;2023-09-18T04:59:46;9.73;;;6.82;;
75356;SDS011;63946;51.986;5.930;2023-09-18T05:05:13;8.95;;;7.63;;
75356;SDS011;63946;51.986;5.930;2023-09-18T05:07:56;13.20;;;7.70;;
75356;SDS011;63946;51.986;5.930;2023-09-18T05:10:36;10.70;;;7.00;;
75356;SDS011;63946;51.986;5.930;2023-09-18T05:13:19;11.30;;;6.55;;
75356;SDS011;63946;51.986;5.930;2023-09-18T05:15:57;9.27;;;6.07;;
75356;SDS011;63946;51.986;5.930;2023-09-18T05:19:04;9.13;;;6.03;;
75356;SDS011;63946;51.986;5.930;2023-09-18T05:21:38;7.00;;;5.90;;
75356;SDS011;63946;51.986;5.930;2023-09-18T05:24:07;7.80;;;5.75;;
75356;SDS011;63946;51.986;5.930;2023-09-18T05:26:37;6.90;;;6.10;;
75356;SDS011;63946;51.986;5.930;2023-09-18T05:29:12;10.23;;;6.80;;
75356;SDS011;63946;51.986;5.930;2023-09-18T05:31:45;9.45;;;6.10;;
75356;SDS011;63946;51.986;5.930;2023-09-18T05:34:24;8.98;;;5.80;;
75356;SDS011;63946;51.986;5.930;2023-09-18T05:37:03;9.20;;;6.70;;
75356;SDS011;63946;51.986;5.930;2023-09-18T05:39:38;10.90;;;6.32;;
75356;SDS011;63946;51.986;5.930;2023-09-18T05:42:10;7.75;;;6.20;;
75356;SDS011;63946;51.986;5.930;2023-09-18T05:44:44;10.75;;;6.82;;
75356;SDS011;63946;51.986;5.930;2023-09-18T05:47:16;9.50;;;6.88;;
75356;SDS011;63946;51.986;5.930;2023-09-18T05:49:53;9.95;;;7.03;;
75356;SDS011;63946;51.986;5.930;2023-09-18T05:52:27;9.27;;;6.88;;
75356;SDS011;63946;51.986;5.930;2023-09-18T05:55:04;11.20;;;6.82;;
75356;SDS011;63946;51.986;5.930;2023-09-18T05:57:53;7.85;;;5.85;;
75356;SDS011;63946;51.986;5.930;2023-09-18T06:00:48;8.68;;;6.90;;
75356;SDS011;63946;51.986;5.930;2023-09-18T06:03:19;11.57;;;6.65;;
75356;SDS011;63946;51.986;5.930;2023-09-18T06:05:50;9.73;;;6.88;;
75356;SDS011;63946;51.986;5.930;2023-09-18T06:08:22;8.68;;;6.80;;
75356;SDS011;63946;51.986;5.930;2023-09-18T06:10:55;11.13;;;7.88;;
75356;SDS011;63946;51.986;5.930;2023-09-18T06:13:30;8.85;;;7.95;;
75356;SDS011;63946;51.986;5.930;2023-09-18T06:16:00;12.23;;;7.55;;
75356;SDS011;63946;51.986;5.930;2023-09-18T06:18:33;10.75;;;7.20;;
75356;SDS011;63946;51.986;5.930;2023-09-18T06:21:04;8.05;;;6.00;;
75356;SDS011;63946;51.986;5.930;2023-09-18T06:23:33;10.25;;;7.47;;
75356;SDS011;63946;51.986;5.930;2023-09-18T06:26:02;11.45;;;6.78;;
75356;SDS011;63946;51.986;5.930;2023-09-18T06:28:32;7.32;;;6.20;;
75356;SDS011;63946;51.986;5.930;2023-09-18T06:31:01;11.52;;;7.40;;
75356;SDS011;63946;51.986;5.930;2023-09-18T06:33:30;10.18;;;7.30;;
75356;SDS011;63946;51.986;5.930;2023-09-18T06:36:01;9.73;;;7.07;;
75356;SDS011;63946;51.986;5.930;2023-09-18T06:38:32;8.85;;;6.95;;
75356;SDS011;63946;51.986;5.930;2023-09-18T06:41:02;7.32;;;6.57;;
75356;SDS011;63946;51.986;5.930;2023-09-18T06:43:33;10.07;;;7.18;;
75356;SDS011;63946;51.986;5.930;2023-09-18T06:46:07;7.35;;;6.03;;
75356;SDS011;63946;51.986;5.930;2023-09-18T06:48:36;13.18;;;7.18;;
75356;SDS011;63946;51.986;5.930;2023-09-18T06:51:05;8.35;;;6.25;;
75356;SDS011;63946;51.986;5.930;2023-09-18T06:53:34;14.63;;;7.13;;
75356;SDS011;63946;51.986;5.930;2023-09-18T06:56:03;9.13;;;5.88;;
75356;SDS011;63946;51.986;5.930;2023-09-18T06:58:32;8.25;;;6.05;;
75356;SDS011;63946;51.986;5.930;2023-09-18T07:01:01;14.18;;;6.65;;
75356;SDS011;63946;51.986;5.930;2023-09-18T07:03:32;7.38;;;5.30;;
75356;SDS011;63946;51.986;5.930;2023-09-18T07:06:02;8.40;;;5.63;;
75356;SDS011;63946;51.986;5.930;2023-09-18T07:08:32;7.45;;;5.60;;
75356;SDS011;63946;51.986;5.930;2023-09-18T07:11:02;7.43;;;5.50;;
75356;SDS011;63946;51.986;5.930;2023-09-18T07:13:34;7.60;;;4.68;;
75356;SDS011;63946;51.986;5.930;2023-09-18T07:16:05;6.70;;;4.32;;
75356;SDS011;63946;51.986;5.930;2023-09-18T07:18:37;7.85;;;4.50;;
75356;SDS011;63946;51.986;5.930;2023-09-18T07:21:09;4.80;;;3.75;;
75356;SDS011;63946;51.986;5.930;2023-09-18T07:23:39;7.20;;;3.85;;
75356;SDS011;63946;51.986;5.930;2023-09-18T07:26:14;3.55;;;3.13;;
75356;SDS011;63946;51.986;5.930;2023-09-18T07:28:43;4.85;;;3.35;;
75356;SDS011;63946;51.986;5.930;2023-09-18T07:31:12;4.85;;;3.20;;
75356;SDS011;63946;51.986;5.930;2023-09-18T07:33:43;5.25;;;3.35;;
75356;SDS011;63946;51.986;5.930;2023-09-18T07:41:15;4.18;;;2.63;;
75356;SDS011;63946;51.986;5.930;2023-09-18T07:43:45;6.80;;;3.20;;
75356;SDS011;63946;51.986;5.930;2023-09-18T07:46:14;3.88;;;2.95;;
75356;SDS011;63946;51.986;5.930;2023-09-18T07:48:43;5.07;;;3.38;;
75356;SDS011;63946;51.986;5.930;2023-09-18T07:51:14;5.88;;;3.20;;
75356;SDS011;63946;51.986;5.930;2023-09-18T07:53:43;3.35;;;2.83;;
75356;SDS011;63946;51.986;5.930;2023-09-18T07:56:15;3.30;;;2.42;;
75356;SDS011;63946;51.986;5.930;2023-09-18T07:58:48;4.65;;;2.97;;
75356;SDS011;63946;51.986;5.930;2023-09-18T08:01:18;4.43;;;2.60;;
75356;SDS011;63946;51.986;5.930;2023-09-18T08:03:48;3.40;;;2.90;;
75356;SDS011;63946;51.986;5.930;2023-09-18T08:06:22;6.07;;;3.28;;
75356;SDS011;63946;51.986;5.930;2023-09-18T08:08:56;4.53;;;2.92;;
75356;SDS011;63946;51.986;5.930;2023-09-18T08:11:30;4.30;;;2.38;;
75356;SDS011;63946;51.986;5.930;2023-09-18T08:13:59;6.30;;;2.70;;
75356;SDS011;63946;51.986;5.930;2023-09-18T08:16:33;3.22;;;2.40;;
75356;SDS011;63946;51.986;5.930;2023-09-18T08:19:04;4.63;;;2.60;;
75356;SDS011;63946;51.986;5.930;2023-09-18T08:21:33;3.50;;;2.67;;
75356;SDS011;63946;51.986;5.930;2023-09-18T08:24:12;3.78;;;2.63;;
75356;SDS011;63946;51.986;5.930;2023-09-18T08:26:41;4.07;;;2.38;;
75356;SDS011;63946;51.986;5.930;2023-09-18T08:29:12;3.40;;;2.72;;
75356;SDS011;63946;51.986;5.930;2023-09-18T08:31:42;4.40;;;2.90;;
75356;SDS011;63946;51.986;5.930;2023-09-18T08:34:11;6.20;;;2.95;;
75356;SDS011;63946;51.986;5.930;2023-09-18T08:36:40;4.13;;;2.63;;
75356;SDS011;63946;51.986;5.930;2023-09-18T08:39:09;4.82;;;2.50;;
75356;SDS011;63946;51.986;5.930;2023-09-18T08:41:38;4.13;;;2.50;;
75356;SDS011;63946;51.986;5.930;2023-09-18T08:44:15;5.00;;;2.95;;
75356;SDS011;63946;51.986;5.930;2023-09-18T08:46:44;2.45;;;2.13;;
75356;SDS011;63946;51.986;5.930;2023-09-18T08:49:13;4.60;;;2.40;;
75356;SDS011;63946;51.986;5.930;2023-09-18T08:51:45;3.92;;;2.65;;
75356;SDS011;63946;51.986;5.930;2023-09-18T08:54:15;3.08;;;1.52;;
75356;SDS011;63946;51.986;5.930;2023-09-18T08:56:47;2.60;;;1.95;;
75356;SDS011;63946;51.986;5.930;2023-09-18T08:59:16;3.05;;;2.10;;
75356;SDS011;63946;51.986;5.930;2023-09-18T09:01:50;4.75;;;2.17;;
75356;SDS011;63946;51.986;5.930;2023-09-18T09:04:19;3.83;;;2.28;;
75356;SDS011;63946;51.986;5.930;2023-09-18T09:06:48;2.80;;;2.00;;
75356;SDS011;63946;51.986;5.930;2023-09-18T09:09:23;5.38;;;2.30;;
75356;SDS011;63946;51.986;5.930;2023-09-18T09:11:53;2.42;;;1.75;;
75356;SDS011;63946;51.986;5.930;2023-09-18T09:14:23;4.45;;;2.15;;
75356;SDS011;63946;51.986;5.930;2023-09-18T09:16:56;5.15;;;2.72;;
75356;SDS011;63946;51.986;5.930;2023-09-18T09:19:35;3.67;;;2.38;;
75356;SDS011;63946;51.986;5.930;2023-09-18T09:22:08;2.85;;;1.83;;
75356;SDS011;63946;51.986;5.930;2023-09-18T09:24:41;3.97;;;2.15;;
75356;SDS011;63946;51.986;5.930;2023-09-18T09:27:11;2.90;;;1.95;;
75356;SDS011;63946;51.986;5.930;2023-09-18T09:29:59;2.95;;;1.80;;
75356;SDS011;63946;51.986;5.930;2023-09-18T09:32:32;4.93;;;2.38;;
75356;SDS011;63946;51.986;5.930;2023-09-18T09:35:04;4.70;;;1.85;;
75356;SDS011;63946;51.986;5.930;2023-09-18T09:37:33;3.53;;;2.30;;
75356;SDS011;63946;51.986;5.930;2023-09-18T09:40:05;4.93;;;2.40;;
75356;SDS011;63946;51.986;5.930;2023-09-18T09:42:40;3.08;;;2.10;;
75356;SDS011;63946;51.986;5.930;2023-09-18T09:45:13;2.85;;;1.80;;
75356;SDS011;63946;51.986;5.930;2023-09-18T09:47:44;3.33;;;1.88;;
75356;SDS011;63946;51.986;5.930;2023-09-18T09:50:14;1.95;;;1.55;;
75356;SDS011;63946;51.986;5.930;2023-09-18T09:52:49;3.28;;;1.83;;
75356;SDS011;63946;51.986;5.930;2023-09-18T09:55:26;4.28;;;2.75;;
75356;SDS011;63946;51.986;5.930;2023-09-18T09:58:05;3.10;;;1.88;;
75356;SDS011;63946;51.986;5.930;2023-09-18T10:03:16;3.95;;;2.20;;
75356;SDS011;63946;51.986;5.930;2023-09-18T10:05:51;3.30;;;1.85;;
75356;SDS011;63946;51.986;5.930;2023-09-18T10:08:22;2.15;;;1.80;;
75356;SDS011;63946;51.986;5.930;2023-09-18T10:11:00;3.72;;;1.60;;
75356;SDS011;63946;51.986;5.930;2023-09-18T10:13:46;3.47;;;2.22;;
75356;SDS011;63946;51.986;5.930;2023-09-18T10:16:18;4.50;;;2.47;;
75356;SDS011;63946;51.986;5.930;2023-09-18T10:22:24;4.95;;;2.20;;
75356;SDS011;63946;51.986;5.930;2023-09-18T10:25:23;3.67;;;2.15;;
75356;SDS011;63946;51.986;5.930;2023-09-18T10:30:57;2.72;;;1.92;;
75356;SDS011;63946;51.986;5.930;2023-09-18T10:33:29;3.95;;;2.38;;
75356;SDS011;63946;51.986;5.930;2023-09-18T10:36:05;2.95;;;1.70;;
75356;SDS011;63946;51.986;5.930;2023-09-18T10:38:51;3.25;;;2.85;;
75356;SDS011;63946;51.986;5.930;2023-09-18T10:41:22;4.63;;;2.10;;
75356;SDS011;63946;51.986;5.930;2023-09-18T10:43:55;3.60;;;2.75;;
75356;SDS011;63946;51.986;5.930;2023-09-18T10:46:29;4.95;;;2.45;;
75356;SDS011;63946;51.986;5.930;2023-09-18T10:51:52;5.07;;;2.83;;
75356;SDS011;63946;51.986;5.930;2023-09-18T10:54:29;3.38;;;2.50;;
75356;SDS011;63946;51.986;5.930;2023-09-18T10:57:05;5.13;;;2.67;;
75356;SDS011;63946;51.986;5.930;2023-09-18T10:59:47;4.93;;;2.72;;
75356;SDS011;63946;51.986;5.930;2023-09-18T11:02:16;5.28;;;3.20;;
75356;SDS011;63946;51.986;5.930;2023-09-18T11:04:50;5.07;;;2.95;;
75356;SDS011;63946;51.986;5.930;2023-09-18T11:07:23;3.30;;;2.50;;
75356;SDS011;63946;51.986;5.930;2023-09-18T11:09:55;3.88;;;2.80;;
75356;SDS011;63946;51.986;5.930;2023-09-18T11:12:41;4.72;;;2.50;;
75356;SDS011;63946;51.986;5.930;2023-09-18T11:15:25;4.95;;;2.80;;
75356;SDS011;63946;51.986;5.930;2023-09-18T11:17:59;5.13;;;3.05;;
75356;SDS011;63946;51.986;5.930;2023-09-18T11:20:35;5.82;;;2.78;;
75356;SDS011;63946;51.986;5.930;2023-09-18T11:25:43;5.03;;;3.05;;
75356;SDS011;63946;51.986;5.930;2023-09-18T11:28:14;4.82;;;2.80;;
75356;SDS011;63946;51.986;5.930;2023-09-18T11:30:48;5.10;;;2.95;;
75356;SDS011;63946;51.986;5.930;2023-09-18T11:33:30;3.78;;;2.63;;
75356;SDS011;63946;51.986;5.930;2023-09-18T11:36:07;5.97;;;3.13;;
75356;SDS011;63946;51.986;5.930;2023-09-18T11:38:55;6.20;;;2.97;;
75356;SDS011;63946;51.986;5.930;2023-09-18T11:41:33;3.67;;;2.90;;
75356;SDS011;63946;51.986;5.930;2023-09-18T11:46:46;4.50;;;2.42;;
75356;SDS011;63946;51.986;5.930;2023-09-18T11:49:21;4.75;;;3.20;;
75356;SDS011;63946;51.986;5.930;2023-09-18T11:51:55;6.18;;;3.33;;
75356;SDS011;63946;51.986;5.930;2023-09-18T11:54:29;5.25;;;3.03;;
75356;SDS011;63946;51.986;5.930;2023-09-18T11:57:03;5.90;;;2.90;;
75356;SDS011;63946;51.986;5.930;2023-09-18T11:59:34;5.50;;;2.85;;
75356;SDS011;63946;51.986;5.930;2023-09-18T12:02:06;4.75;;;2.90;;
75356;SDS011;63946;51.986;5.930;2023-09-18T12:04:35;6.28;;;3.40;;
75356;SDS011;63946;51.986;5.930;2023-09-18T12:07:05;4.53;;;2.83;;
75356;SDS011;63946;51.986;5.930;2023-09-18T12:09:37;4.45;;;2.60;;
75356;SDS011;63946;51.986;5.930;2023-09-18T12:12:09;3.30;;;2.60;;
75356;SDS011;63946;51.986;5.930;2023-09-18T12:15:02;4.70;;;2.95;;
75356;SDS011;63946;51.986;5.930;2023-09-18T12:17:35;7.70;;;3.40;;
75356;SDS011;63946;51.986;5.930;2023-09-18T12:20:04;4.57;;;2.83;;
75356;SDS011;63946;51.986;5.930;2023-09-18T12:22:33;3.42;;;2.97;;
75356;SDS011;63946;51.986;5.930;2023-09-18T12:25:11;3.28;;;2.55;;
75356;SDS011;63946;51.986;5.930;2023-09-18T12:27:54;4.75;;;3.20;;
75356;SDS011;63946;51.986;5.930;2023-09-18T12:30:25;4.38;;;3.35;;
75356;SDS011;63946;51.986;5.930;2023-09-18T12:32:54;4.60;;;3.33;;
75356;SDS011;63946;51.986;5.930;2023-09-18T12:35:29;5.63;;;2.85;;
75356;SDS011;63946;51.986;5.930;2023-09-18T12:37:59;9.02;;;3.15;;
75356;SDS011;63946;51.986;5.930;2023-09-18T12:40:30;4.25;;;2.75;;
75356;SDS011;63946;51.986;5.930;2023-09-18T12:43:01;5.47;;;2.90;;
75356;SDS011;63946;51.986;5.930;2023-09-18T12:48:03;4.18;;;3.40;;
75356;SDS011;63946;51.986;5.930;2023-09-18T12:50:43;7.22;;;2.55;;
75356;SDS011;63946;51.986;5.930;2023-09-18T12:53:13;4.20;;;2.58;;
75356;SDS011;63946;51.986;5.930;2023-09-18T12:55:43;3.60;;;3.30;;
75356;SDS011;63946;51.986;5.930;2023-09-18T12:58:12;5.05;;;3.30;;
75356;SDS011;63946;51.986;5.930;2023-09-18T13:00:47;4.43;;;3.28;;
75356;SDS011;63946;51.986;5.930;2023-09-18T13:03:18;4.80;;;3.22;;
75356;SDS011;63946;51.986;5.930;2023-09-18T13:05:51;4.70;;;3.08;;
75356;SDS011;63946;51.986;5.930;2023-09-18T13:08:34;4.18;;;3.25;;
75356;SDS011;63946;51.986;5.930;2023-09-18T13:11:07;3.97;;;2.80;;
75356;SDS011;63946;51.986;5.930;2023-09-18T13:13:36;5.57;;;3.10;;
75356;SDS011;63946;51.986;5.930;2023-09-18T13:16:25;4.03;;;2.85;;
75356;SDS011;63946;51.986;5.930;2023-09-18T13:19:04;4.93;;;2.40;;
75356;SDS011;63946;51.986;5.930;2023-09-18T13:21:37;4.30;;;2.85;;
75356;SDS011;63946;51.986;5.930;2023-09-18T13:24:30;2.78;;;2.15;;
75356;SDS011;63946;51.986;5.930;2023-09-18T13:27:00;3.63;;;3.03;;
75356;SDS011;63946;51.986;5.930;2023-09-18T13:29:29;4.43;;;2.70;;
75356;SDS011;63946;51.986;5.930;2023-09-18T13:32:03;5.55;;;3.00;;
75356;SDS011;63946;51.986;5.930;2023-09-18T13:34:35;3.58;;;2.60;;
75356;SDS011;63946;51.986;5.930;2023-09-18T13:37:05;6.15;;;2.65;;
75356;SDS011;63946;51.986;5.930;2023-09-18T13:39:36;2.75;;;2.40;;
75356;SDS011;63946;51.986;5.930;2023-09-18T13:42:05;4.57;;;3.03;;
75356;SDS011;63946;51.986;5.930;2023-09-18T13:44:35;3.45;;;3.10;;
75356;SDS011;63946;51.986;5.930;2023-09-18T13:47:14;4.43;;;2.30;;
75356;SDS011;63946;51.986;5.930;2023-09-18T13:49:43;4.35;;;2.40;;
75356;SDS011;63946;51.986;5.930;2023-09-18T13:52:19;2.65;;;2.15;;
75356;SDS011;63946;51.986;5.930;2023-09-18T13:54:48;3.88;;;2.67;;
75356;SDS011;63946;51.986;5.930;2023-09-18T13:57:21;4.95;;;3.17;;
75356;SDS011;63946;51.986;5.930;2023-09-18T14:00:03;3.88;;;2.42;;
75356;SDS011;63946;51.986;5.930;2023-09-18T14:02:51;4.30;;;2.80;;
75356;SDS011;63946;51.986;5.930;2023-09-18T14:05:23;5.70;;;2.92;;
75356;SDS011;63946;51.986;5.930;2023-09-18T14:07:52;4.47;;;2.30;;
75356;SDS011;63946;51.986;5.930;2023-09-18T14:10:25;4.35;;;3.00;;
75356;SDS011;63946;51.986;5.930;2023-09-18T14:12:59;3.30;;;2.40;;
75356;SDS011;63946;51.986;5.930;2023-09-18T14:15:28;5.60;;;2.50;;
75356;SDS011;63946;51.986;5.930;2023-09-18T14:18:00;4.15;;;2.40;;
75356;SDS011;63946;51.986;5.930;2023-09-18T14:20:29;6.57;;;2.67;;
75356;SDS011;63946;51.986;5.930;2023-09-18T14:23:03;4.25;;;2.53;;
75356;SDS011;63946;51.986;5.930;2023-09-18T14:25:35;4.63;;;2.63;;
75356;SDS011;63946;51.986;5.930;2023-09-18T14:28:04;2.38;;;2.00;;
75356;SDS011;63946;51.986;5.930;2023-09-18T14:30:40;4.35;;;2.58;;
75356;SDS011;63946;51.986;5.930;2023-09-18T14:33:15;4.78;;;2.50;;
75356;SDS011;63946;51.986;5.930;2023-09-18T14:35:46;3.58;;;2.35;;
75356;SDS011;63946;51.986;5.930;2023-09-18T14:38:15;5.13;;;2.38;;
75356;SDS011;63946;51.986;5.930;2023-09-18T14:40:47;6.00;;;2.58;;
75356;SDS011;63946;51.986;5.930;2023-09-18T14:43:15;4.43;;;2.30;;
75356;SDS011;63946;51.986;5.930;2023-09-18T14:45:47;5.30;;;2.25;;
75356;SDS011;63946;51.986;5.930;2023-09-18T14:48:17;2.33;;;1.73;;
75356;SDS011;63946;51.986;5.930;2023-09-18T14:50:52;3.85;;;2.22;;
75356;SDS011;63946;51.986;5.930;2023-09-18T14:53:22;3.65;;;2.05;;
75356;SDS011;63946;51.986;5.930;2023-09-18T14:56:03;3.10;;;2.20;;
75356;SDS011;63946;51.986;5.930;2023-09-18T14:58:40;3.42;;;2.33;;
75356;SDS011;63946;51.986;5.930;2023-09-18T15:01:14;4.30;;;2.50;;
75356;SDS011;63946;51.986;5.930;2023-09-18T15:03:46;5.10;;;2.35;;
75356;SDS011;63946;51.986;5.930;2023-09-18T15:06:18;3.95;;;2.53;;
75356;SDS011;63946;51.986;5.930;2023-09-18T15:08:47;3.50;;;2.30;;
75356;SDS011;63946;51.986;5.930;2023-09-18T15:11:16;3.38;;;2.33;;
75356;SDS011;63946;51.986;5.930;2023-09-18T15:13:45;4.93;;;2.47;;
75356;SDS011;63946;51.986;5.930;2023-09-18T15:16:14;4.75;;;2.83;;
75356;SDS011;63946;51.986;5.930;2023-09-18T15:21:20;4.13;;;2.20;;
75356;SDS011;63946;51.986;5.930;2023-09-18T15:23:51;2.97;;;1.98;;
75356;SDS011;63946;51.986;5.930;2023-09-18T15:26:21;4.28;;;2.55;;
75356;SDS011;63946;51.986;5.930;2023-09-18T15:28:55;3.88;;;2.17;;
75356;SDS011;63946;51.986;5.930;2023-09-18T15:31:25;2.53;;;2.00;;
75356;SDS011;63946;51.986;5.930;2023-09-18T15:36:24;4.07;;;2.10;;
75356;SDS011;63946;51.986;5.930;2023-09-18T15:38:56;4.60;;;2.30;;
75356;SDS011;63946;51.986;5.930;2023-09-18T15:41:25;3.30;;;1.13;;
75356;SDS011;63946;51.986;5.930;2023-09-18T15:43:57;2.42;;;1.25;;
75356;SDS011;63946;51.986;5.930;2023-09-18T15:46:26;3.97;;;1.42;;
75356;SDS011;63946;51.986;5.930;2023-09-18T15:48:57;1.65;;;0.90;;
75356;SDS011;63946;51.986;5.930;2023-09-18T15:51:27;3.30;;;1.10;;
75356;SDS011;63946;51.986;5.930;2023-09-18T15:53:55;3.00;;;1.17;;
75356;SDS011;63946;51.986;5.930;2023-09-18T15:56:24;4.70;;;1.42;;
75356;SDS011;63946;51.986;5.930;2023-09-18T15:58:53;2.45;;;0.90;;
75356;SDS011;63946;51.986;5.930;2023-09-18T16:01:23;4.85;;;1.15;;